SBI2506 UNNT-UUDD
Flight info
| Callsign | SBI2506 |
|---|---|
| Flight time | N/A |
| Altitude | 32000 |
| Route | OGAMA1J OGAMA A308 OSNAB G828 SZ A487 OZGEL L158 OKETI/K0830F340 L158 MEBOG/K0820F360 L158 APTAR T787 URAGO URAGO3N |
| Aircraft | E170/M-SDE3GILORVW/S |
Departure
| Time | 2026-05-05 08:11 |
|---|---|
| Airport | Novosibirsk Tolmachevo Airport (UNNT) |
Arrival
| Time | N/A |
|---|---|
| Airport | Domodedovo International Airport (UUDD) |
| Time | Latitude | Longitude | Altitude | Speed | Heading |
|---|---|---|---|---|---|
| 2026-05-05 07:32 | 55.01004 | 82.66133 | 370 ft | 0 kts | 171° |
| 2026-05-05 07:33 | 55.01004 | 82.66132 | 370 ft | 0 kts | 171° |
| 2026-05-05 08:00 | 55.00998 | 82.66134 | 370 ft | 2 kts | 171° |
| 2026-05-05 08:00 | 55.00979 | 82.66139 | 370 ft | 4 kts | 170° |
| 2026-05-05 08:01 | 55.00972 | 82.66137 | 370 ft | 2 kts | 201° |
| 2026-05-05 08:01 | 55.00957 | 82.66096 | 370 ft | 7 kts | 258° |
| 2026-05-05 08:01 | 55.00948 | 82.65975 | 371 ft | 12 kts | 261° |
| 2026-05-05 08:01 | 55.00931 | 82.65825 | 371 ft | 13 kts | 258° |
| 2026-05-05 08:02 | 55.00918 | 82.65655 | 371 ft | 15 kts | 262° |
| 2026-05-05 08:02 | 55.00903 | 82.65476 | 371 ft | 16 kts | 260° |
| 2026-05-05 08:02 | 55.00883 | 82.65282 | 371 ft | 16 kts | 262° |
| 2026-05-05 08:02 | 55.00874 | 82.65080 | 371 ft | 17 kts | 262° |
| 2026-05-05 08:03 | 55.00888 | 82.64871 | 371 ft | 18 kts | 282° |
| 2026-05-05 08:03 | 55.00916 | 82.64654 | 371 ft | 19 kts | 282° |
| 2026-05-05 08:03 | 55.00946 | 82.64423 | 371 ft | 20 kts | 282° |
| 2026-05-05 08:03 | 55.00956 | 82.64337 | 371 ft | 1 kts | 283° |
| 2026-05-05 08:04 | 55.00959 | 82.64318 | 371 ft | 2 kts | 283° |
| 2026-05-05 08:04 | 55.00966 | 82.64265 | 371 ft | 6 kts | 283° |
| 2026-05-05 08:04 | 55.00970 | 82.64219 | 371 ft | 0 kts | 243° |
| 2026-05-05 08:04 | 55.00953 | 82.64168 | 371 ft | 11 kts | 248° |
| 2026-05-05 08:05 | 55.00937 | 82.64033 | 371 ft | 8 kts | 263° |
| 2026-05-05 08:05 | 55.00928 | 82.63926 | 371 ft | 9 kts | 261° |
| 2026-05-05 08:05 | 55.00916 | 82.63807 | 371 ft | 11 kts | 259° |
| 2026-05-05 08:05 | 55.00904 | 82.63670 | 371 ft | 10 kts | 269° |
| 2026-05-05 08:06 | 55.00906 | 82.63657 | 371 ft | 2 kts | 293° |
| 2026-05-05 08:06 | 55.00909 | 82.63655 | 371 ft | 1 kts | 355° |
| 2026-05-05 08:06 | 55.00923 | 82.63687 | 371 ft | 8 kts | 81° |
| 2026-05-05 08:06 | 55.00919 | 82.63849 | 371 ft | 15 kts | 87° |
| 2026-05-05 08:07 | 55.00939 | 82.64040 | 371 ft | 17 kts | 78° |
| 2026-05-05 08:07 | 55.00949 | 82.64153 | 371 ft | 7 kts | 83° |
| 2026-05-05 08:07 | 55.00967 | 82.64178 | 371 ft | 5 kts | 346° |
| 2026-05-05 08:07 | 55.00989 | 82.64096 | 371 ft | 10 kts | 280° |
| 2026-05-05 08:08 | 55.01022 | 82.64006 | 372 ft | 8 kts | 336° |
| 2026-05-05 08:08 | 55.01077 | 82.63989 | 373 ft | 8 kts | 354° |
| 2026-05-05 08:08 | 55.01131 | 82.63957 | 373 ft | 11 kts | 317° |
| 2026-05-05 08:08 | 55.01131 | 82.63810 | 373 ft | 16 kts | 256° |
| 2026-05-05 08:09 | 55.01104 | 82.63551 | 371 ft | 27 kts | 261° |
| 2026-05-05 08:09 | 55.01075 | 82.63211 | 369 ft | 29 kts | 258° |
| 2026-05-05 08:09 | 55.01037 | 82.62869 | 370 ft | 29 kts | 258° |
| 2026-05-05 08:09 | 55.01006 | 82.62533 | 373 ft | 27 kts | 253° |
| 2026-05-05 08:10 | 55.00954 | 82.62369 | 373 ft | 8 kts | 280° |
| 2026-05-05 08:10 | 55.00984 | 82.62358 | 374 ft | 5 kts | 47° |
| 2026-05-05 08:10 | 55.01003 | 82.62431 | 374 ft | 9 kts | 81° |
| 2026-05-05 08:10 | 55.01018 | 82.62583 | 372 ft | 32 kts | 80° |
| 2026-05-05 08:11 | 55.01095 | 82.63446 | 371 ft | 110 kts | 80° |
| 2026-05-05 08:11 | 55.01255 | 82.65161 | 458 ft | 168 kts | 84° |
| 2026-05-05 08:11 | 55.01449 | 82.67289 | 1191 ft | 184 kts | 84° |
| 2026-05-05 08:11 | 55.01714 | 82.69530 | 2149 ft | 194 kts | 81° |
| 2026-05-05 08:12 | 55.02479 | 82.71703 | 2811 ft | 229 kts | 41° |
| 2026-05-05 08:12 | 55.03953 | 82.72927 | 3574 ft | 241 kts | 4° |
| 2026-05-05 08:12 | 55.05633 | 82.72605 | 4281 ft | 252 kts | 329° |
| 2026-05-05 08:12 | 55.06907 | 82.70825 | 4883 ft | 227 kts | 295° |
| 2026-05-05 08:13 | 55.07279 | 82.68245 | 5514 ft | 221 kts | 267° |
| 2026-05-05 08:13 | 55.07210 | 82.65526 | 6167 ft | 227 kts | 265° |
| 2026-05-05 08:13 | 55.07093 | 82.62793 | 6798 ft | 231 kts | 264° |
| 2026-05-05 08:13 | 55.06965 | 82.59973 | 7412 ft | 235 kts | 265° |
| 2026-05-05 08:14 | 55.06895 | 82.57114 | 8037 ft | 236 kts | 272° |
| 2026-05-05 08:14 | 55.07112 | 82.54258 | 8672 ft | 238 kts | 278° |
| 2026-05-05 08:14 | 55.07483 | 82.51441 | 9320 ft | 240 kts | 282° |
| 2026-05-05 08:14 | 55.07961 | 82.48630 | 9974 ft | 241 kts | 285° |
| 2026-05-05 08:15 | 55.08499 | 82.45933 | 10556 ft | 242 kts | 287° |
| 2026-05-05 08:15 | 55.09123 | 82.43115 | 11152 ft | 243 kts | 289° |
| 2026-05-05 08:15 | 55.09759 | 82.40373 | 11752 ft | 244 kts | 289° |
| 2026-05-05 08:15 | 55.10401 | 82.37655 | 12348 ft | 246 kts | 290° |
| 2026-05-05 08:16 | 55.11050 | 82.34948 | 12948 ft | 228 kts | 291° |
| 2026-05-05 08:16 | 55.11690 | 82.32568 | 13528 ft | 213 kts | 294° |
| 2026-05-05 08:16 | 55.12379 | 82.30219 | 14121 ft | 216 kts | 295° |
| 2026-05-05 08:16 | 55.13073 | 82.27923 | 14681 ft | 217 kts | 295° |
| 2026-05-05 08:17 | 55.13783 | 82.25580 | 15262 ft | 219 kts | 295° |
| 2026-05-05 08:17 | 55.14504 | 82.23196 | 15750 ft | 225 kts | 295° |
| 2026-05-05 08:17 | 55.15241 | 82.20754 | 16237 ft | 230 kts | 295° |
| 2026-05-05 08:17 | 55.15999 | 82.18243 | 16741 ft | 236 kts | 295° |
| 2026-05-05 08:18 | 55.16775 | 82.15668 | 17249 ft | 242 kts | 296° |
| 2026-05-05 08:18 | 55.17566 | 82.13038 | 17765 ft | 248 kts | 296° |
| 2026-05-05 08:18 | 55.18380 | 82.10329 | 18283 ft | 254 kts | 296° |
| 2026-05-05 08:18 | 55.19213 | 82.07558 | 18737 ft | 260 kts | 296° |
| 2026-05-05 08:19 | 55.20063 | 82.04721 | 19187 ft | 267 kts | 296° |
| 2026-05-05 08:19 | 55.20937 | 82.01801 | 19665 ft | 274 kts | 296° |
| 2026-05-05 08:19 | 55.21830 | 81.98811 | 20156 ft | 281 kts | 295° |
| 2026-05-05 08:19 | 55.22735 | 81.95782 | 20629 ft | 287 kts | 295° |
| 2026-05-05 08:20 | 55.23665 | 81.92662 | 21114 ft | 292 kts | 295° |
| 2026-05-05 08:20 | 55.24615 | 81.89473 | 21606 ft | 297 kts | 295° |
| 2026-05-05 08:20 | 55.25570 | 81.86261 | 22099 ft | 301 kts | 295° |
| 2026-05-05 08:20 | 55.26540 | 81.82991 | 22611 ft | 304 kts | 295° |
| 2026-05-05 08:21 | 55.27523 | 81.79680 | 23134 ft | 307 kts | 295° |
| 2026-05-05 08:21 | 55.28514 | 81.76337 | 23650 ft | 311 kts | 295° |
| 2026-05-05 08:21 | 55.29514 | 81.72953 | 24084 ft | 314 kts | 295° |
| 2026-05-05 08:21 | 55.30524 | 81.69533 | 24532 ft | 317 kts | 295° |
| 2026-05-05 08:22 | 55.31542 | 81.66079 | 24985 ft | 321 kts | 295° |
| 2026-05-05 08:22 | 55.32573 | 81.62580 | 25449 ft | 324 kts | 295° |
| 2026-05-05 08:22 | 55.33612 | 81.59045 | 25918 ft | 326 kts | 295° |
| 2026-05-05 08:22 | 55.34655 | 81.55495 | 26387 ft | 328 kts | 295° |
| 2026-05-05 08:23 | 55.35698 | 81.51937 | 26862 ft | 328 kts | 295° |
| 2026-05-05 08:23 | 55.36744 | 81.48365 | 27344 ft | 328 kts | 295° |
| 2026-05-05 08:23 | 55.37786 | 81.44798 | 27840 ft | 328 kts | 295° |
| 2026-05-05 08:23 | 55.38823 | 81.41241 | 28334 ft | 327 kts | 296° |
| 2026-05-05 08:24 | 55.39858 | 81.37690 | 28837 ft | 326 kts | 296° |
| 2026-05-05 08:24 | 55.40889 | 81.34147 | 29352 ft | 325 kts | 296° |
| 2026-05-05 08:24 | 55.41914 | 81.30619 | 29872 ft | 323 kts | 296° |
| 2026-05-05 08:24 | 55.42930 | 81.27116 | 30343 ft | 320 kts | 296° |
| 2026-05-05 08:25 | 55.43939 | 81.23632 | 30804 ft | 317 kts | 296° |
| 2026-05-05 08:25 | 55.44929 | 81.20199 | 31259 ft | 312 kts | 294° |
| 2026-05-05 08:25 | 55.45776 | 81.16708 | 31734 ft | 308 kts | 291° |
| 2026-05-05 08:25 | 55.46533 | 81.13152 | 31874 ft | 313 kts | 290° |
| 2026-05-05 08:26 | 55.47938 | 81.05704 | 31975 ft | 328 kts | 285° |
| 2026-05-05 08:26 | 55.49073 | 80.97704 | 31976 ft | 344 kts | 284° |
| 2026-05-05 08:27 | 55.50220 | 80.89347 | 31974 ft | 360 kts | 284° |
| 2026-05-05 08:27 | 55.51415 | 80.80606 | 31966 ft | 373 kts | 284° |
| 2026-05-05 08:28 | 55.52625 | 80.71702 | 31946 ft | 370 kts | 284° |
| 2026-05-05 08:28 | 55.53821 | 80.62856 | 31955 ft | 371 kts | 284° |
| 2026-05-05 08:29 | 55.55019 | 80.53944 | 31952 ft | 370 kts | 284° |
| 2026-05-05 08:30 | 55.56590 | 80.42167 | 31952 ft | 370 kts | 284° |